Time;durP1;ratioP1;P1;durP2;ratioP2;P2;SDS_P1;SDS_P2;PMS_P1;PMS_P2;Temp;Humidity;BMP_temperature;BMP_pressure;BME280_temperature;BME280_humidity;BME280_pressure;Samples;Min_cycle;Max_cycle;Signal;HPM_P1;HPM_P2
2022/04/24 00:02:22;;;;;;;36.63;26.35;;;12.90;99.90;;;;;;5035999;28;20445;-60
2022/04/24 00:04:48;;;;;;;40.50;28.92;;;12.90;99.90;;;;;;5036147;28;20107;-60
2022/04/24 00:07:14;;;;;;;46.08;33.88;;;12.90;99.90;;;;;;5032291;28;20417;-59
2022/04/24 00:09:39;;;;;;;46.42;29.40;;;12.90;99.90;;;;;;5036299;28;20034;-60
2022/04/24 00:12:06;;;;;;;45.38;29.23;;;12.90;99.90;;;;;;5036428;28;20120;-60
2022/04/24 00:14:32;;;;;;;45.28;29.63;;;12.90;99.90;;;;;;5035705;28;20091;-60
2022/04/24 00:16:58;;;;;;;44.47;28.90;;;12.80;99.90;;;;;;5035837;28;20021;-60
2022/04/24 00:19:23;;;;;;;38.75;26.85;;;12.90;99.90;;;;;;5033771;28;20034;-60
2022/04/24 00:21:50;;;;;;;39.08;26.35;;;12.90;99.90;;;;;;5033378;28;20108;-59
2022/04/24 00:24:16;;;;;;;47.75;27.95;;;12.90;99.90;;;;;;5035974;28;20034;-61
2022/04/24 00:26:41;;;;;;;40.65;26.65;;;12.90;99.90;;;;;;5034036;28;20505;-60
2022/04/24 00:29:07;;;;;;;48.35;27.80;;;12.90;99.90;;;;;;5035371;28;20053;-60
2022/04/24 00:31:33;;;;;;;46.72;29.83;;;12.90;99.90;;;;;;5033858;28;20068;-60
2022/04/24 00:33:59;;;;;;;51.72;28.15;;;12.90;99.90;;;;;;5031645;28;20053;-60
2022/04/24 00:36:25;;;;;;;48.88;30.67;;;13.00;99.90;;;;;;5037068;28;20449;-59
2022/04/24 00:38:51;;;;;;;50.78;28.35;;;13.00;99.90;;;;;;5035062;28;20049;-59
2022/04/24 00:41:16;;;;;;;57.63;27.10;;;13.00;99.90;;;;;;5034266;28;20033;-60
2022/04/24 00:43:52;;;;;;;50.45;25.77;;;13.10;99.90;;;;;;5035240;28;20422;-60
2022/04/24 00:46:45;;;;;;;47.80;26.25;;;13.10;99.90;;;;;;5032650;28;20084;-60
2022/04/24 00:49:12;;;;;;;49.27;25.77;;;13.10;99.90;;;;;;5017001;28;20449;-60
2022/04/24 00:51:39;;;;;;;52.08;24.88;;;13.10;99.90;;;;;;5034991;28;20264;-60
2022/04/24 00:54:07;;;;;;;52.10;24.48;;;13.10;99.90;;;;;;5035564;28;20099;-59
2022/04/24 00:56:34;;;;;;;46.45;24.52;;;13.10;99.90;;;;;;5034969;28;20029;-58
2022/04/24 00:59:03;;;;;;;55.63;24.05;;;13.10;99.90;;;;;;5034974;28;20495;-60
2022/04/24 01:01:29;;;;;;;53.80;23.67;;;13.20;99.90;;;;;;5032811;28;20021;-60
2022/04/24 01:04:02;;;;;;;50.95;24.05;;;13.20;99.90;;;;;;5031037;28;20029;-60
2022/04/24 01:06:31;;;;;;;55.28;24.13;;;13.20;99.90;;;;;;5036032;28;20060;-60
2022/04/24 01:09:17;;;;;;;47.75;22.58;;;13.20;99.90;;;;;;5034741;28;20034;-60
2022/04/24 01:11:45;;;;;;;55.80;23.20;;;13.20;99.90;;;;;;5034771;28;20037;-60
2022/04/24 01:14:11;;;;;;;51.42;22.73;;;13.30;99.90;;;;;;5034677;28;20494;-60
2022/04/24 01:16:37;;;;;;;53.05;21.40;;;13.20;99.90;;;;;;5034669;28;20497;-60
2022/04/24 01:19:04;;;;;;;53.83;23.27;;;13.20;99.90;;;;;;5028984;28;20035;-61
2022/04/24 01:21:31;;;;;;;55.65;23.48;;;13.30;99.90;;;;;;5043940;28;20029;-60
2022/04/24 01:23:57;;;;;;;55.30;22.50;;;13.20;99.90;;;;;;5034542;28;20033;-60
2022/04/24 01:26:22;;;;;;;53.38;23.33;;;13.20;99.90;;;;;;5034473;28;20075;-60
2022/04/24 01:28:48;;;;;;;56.28;24.88;;;13.20;99.90;;;;;;5034485;28;20115;-59
2022/04/24 01:31:14;;;;;;;53.70;23.55;;;13.20;99.90;;;;;;5031367;28;20017;-60
2022/04/24 01:33:40;;;;;;;68.10;26.02;;;13.30;99.90;;;;;;5034256;28;20087;-60
2022/04/24 01:36:06;;;;;;;60.92;25.08;;;13.30;99.90;;;;;;5034888;28;20445;-60
2022/04/24 01:38:33;;;;;;;54.22;24.38;;;13.20;99.90;;;;;;5034141;28;20053;-60
2022/04/24 01:40:59;;;;;;;57.28;24.40;;;13.30;99.90;;;;;;5033053;28;20029;-60
2022/04/24 01:43:24;;;;;;;62.85;24.92;;;13.20;99.90;;;;;;5031435;28;20040;-60
2022/04/24 01:45:50;;;;;;;65.97;25.48;;;13.20;99.90;;;;;;5031640;28;20029;-60
2022/04/24 01:48:16;;;;;;;59.80;25.77;;;13.20;99.90;;;;;;5035944;28;20060;-60
2022/04/24 01:50:41;;;;;;;55.17;23.77;;;13.30;99.90;;;;;;5034611;28;20036;-58
2022/04/24 01:53:07;;;;;;;56.65;23.95;;;13.20;99.90;;;;;;5034253;28;20091;-59
2022/04/24 01:55:33;;;;;;;56.72;24.67;;;13.20;99.90;;;;;;5033898;28;20394;-60
2022/04/24 01:57:59;;;;;;;59.30;23.83;;;13.30;99.90;;;;;;5030384;28;20022;-60
2022/04/24 02:00:24;;;;;;;60.13;24.63;;;13.20;99.90;;;;;;5041832;28;20026;-60
2022/04/24 02:02:51;;;;;;;60.17;24.60;;;13.30;99.90;;;;;;5040456;28;20029;-60
2022/04/24 02:05:17;;;;;;;59.72;24.77;;;13.20;99.90;;;;;;5041029;28;20025;-60
2022/04/24 02:07:43;;;;;;;61.55;25.60;;;13.30;99.90;;;;;;5040865;28;20045;-60
2022/04/24 02:10:09;;;;;;;60.33;25.10;;;13.30;99.90;;;;;;5037009;28;20104;-60
2022/04/24 02:12:40;;;;;;;64.63;25.85;;;13.30;99.90;;;;;;5041891;28;20025;-60
2022/04/24 02:15:06;;;;;;;61.28;25.52;;;13.30;99.90;;;;;;5040450;28;20042;-60
2022/04/24 02:17:32;;;;;;;58.97;25.13;;;13.20;99.90;;;;;;5040394;28;20025;-60
2022/04/24 02:19:58;;;;;;;58.30;26.20;;;13.20;99.90;;;;;;5039162;28;20074;-60
2022/04/24 02:22:23;;;;;;;60.17;26.30;;;13.20;99.90;;;;;;5037372;28;20029;-60
2022/04/24 02:24:51;;;;;;;64.22;25.90;;;13.20;99.90;;;;;;5038016;28;20030;-59
2022/04/24 02:27:17;;;;;;;61.00;25.92;;;13.20;99.90;;;;;;5042499;28;20025;-60
2022/04/24 02:29:43;;;;;;;54.42;25.38;;;13.20;99.90;;;;;;5040503;28;20029;-60
2022/04/24 02:32:09;;;;;;;58.00;25.77;;;13.20;99.90;;;;;;5040468;28;20073;-60
2022/04/24 02:34:35;;;;;;;63.97;25.95;;;13.10;99.90;;;;;;5040264;28;20033;-60
2022/04/24 02:37:00;;;;;;;68.22;26.23;;;13.10;99.90;;;;;;5035772;28;20033;-59
2022/04/24 02:39:26;;;;;;;58.78;25.45;;;13.10;99.90;;;;;;5041730;28;20049;-60
2022/04/24 02:41:52;;;;;;;58.92;25.38;;;13.20;99.90;;;;;;5040451;28;20486;-60
2022/04/24 02:44:17;;;;;;;64.30;25.67;;;13.20;99.90;;;;;;5040751;28;20461;-59
2022/04/24 02:46:43;;;;;;;57.35;27.15;;;13.10;99.90;;;;;;5040014;28;20029;-59
2022/04/24 02:49:09;;;;;;;61.88;27.38;;;13.10;99.90;;;;;;5018964;28;20046;-60
2022/04/24 02:51:35;;;;;;;59.63;25.77;;;13.10;99.90;;;;;;5041596;28;20087;-59
2022/04/24 02:54:01;;;;;;;65.75;26.23;;;13.10;99.90;;;;;;5040537;28;20037;-60
2022/04/24 02:56:26;;;;;;;61.03;26.65;;;13.10;99.90;;;;;;5040767;28;20159;-60
2022/04/24 02:58:52;;;;;;;56.38;25.58;;;13.10;99.90;;;;;;5038919;28;20041;-59
2022/04/24 03:01:18;;;;;;;62.88;28.77;;;13.10;99.90;;;;;;5035871;28;20034;-60
2022/04/24 03:03:45;;;;;;;60.38;26.90;;;13.10;99.90;;;;;;5039223;28;20026;-60
2022/04/24 03:06:11;;;;;;;57.08;27.00;;;13.10;99.90;;;;;;5041485;28;20037;-60
2022/04/24 03:08:37;;;;;;;59.85;25.42;;;13.20;99.90;;;;;;5040389;28;20032;-60
2022/04/24 03:11:03;;;;;;;57.03;25.33;;;13.10;99.90;;;;;;5036701;28;20391;-60
2022/04/24 03:13:28;;;;;;;57.25;25.02;;;13.20;99.90;;;;;;5035874;28;20032;-61
2022/04/24 03:15:54;;;;;;;51.17;25.48;;;13.10;99.90;;;;;;5034091;28;20037;-60
2022/04/24 03:18:20;;;;;;;52.58;24.42;;;13.10;99.90;;;;;;5037552;28;20104;-60
2022/04/24 03:20:45;;;;;;;54.17;25.42;;;13.10;99.90;;;;;;5036961;28;20033;-59
2022/04/24 03:23:11;;;;;;;53.30;25.02;;;13.10;99.90;;;;;;5036791;28;20065;-60
2022/04/24 03:25:37;;;;;;;53.90;25.50;;;13.10;99.90;;;;;;5036880;28;20037;-60
2022/04/24 03:28:02;;;;;;;54.80;25.52;;;13.10;99.90;;;;;;5032517;28;20022;-61
2022/04/24 03:30:28;;;;;;;54.80;25.88;;;13.10;99.90;;;;;;5038323;28;20025;-60
2022/04/24 03:32:54;;;;;;;55.40;24.88;;;13.00;99.90;;;;;;5036612;28;20118;-60
2022/04/24 03:35:20;;;;;;;59.50;26.05;;;13.00;99.90;;;;;;5035237;28;20033;-60
2022/04/24 03:37:45;;;;;;;57.60;24.60;;;13.10;99.90;;;;;;5035458;28;20072;-60
2022/04/24 03:40:12;;;;;;;50.88;23.63;;;13.10;99.90;;;;;;5031716;28;20168;-60
2022/04/24 03:42:37;;;;;;;53.22;24.38;;;13.10;99.90;;;;;;5035404;28;20061;-60
2022/04/24 03:45:08;;;;;;;49.33;23.42;;;13.00;99.90;;;;;;5036756;28;20072;-60
2022/04/24 03:47:34;;;;;;;50.70;23.83;;;13.00;99.90;;;;;;5036611;28;20021;-60
2022/04/24 03:49:59;;;;;;;52.47;23.77;;;12.90;99.90;;;;;;5036412;28;20394;-60
2022/04/24 03:52:25;;;;;;;49.90;22.42;;;13.00;99.90;;;;;;5034740;28;20520;-60
2022/04/24 03:54:51;;;;;;;51.70;24.00;;;12.90;99.90;;;;;;5033896;28;20045;-60
2022/04/24 03:57:16;;;;;;;60.55;23.95;;;12.90;99.90;;;;;;5035291;28;20492;-60
2022/04/24 03:59:42;;;;;;;47.08;23.35;;;12.90;99.90;;;;;;5035605;28;20022;-60
2022/04/24 04:02:08;;;;;;;56.92;23.30;;;13.00;99.90;;;;;;5036173;28;20371;-59
2022/04/24 04:04:34;;;;;;;54.08;23.52;;;13.00;99.90;;;;;;5035478;28;20043;-60
2022/04/24 04:06:59;;;;;;;50.28;22.70;;;12.90;99.90;;;;;;5032293;28;20088;-59
2022/04/24 04:09:25;;;;;;;50.08;22.40;;;12.90;99.90;;;;;;5037823;28;20124;-60
2022/04/24 04:11:51;;;;;;;47.25;21.80;;;12.90;99.90;;;;;;5035839;28;20035;-60
2022/04/24 04:14:17;;;;;;;48.85;22.25;;;13.00;99.90;;;;;;5035319;28;20029;-60
2022/04/24 04:16:43;;;;;;;46.75;21.40;;;13.00;99.90;;;;;;5034308;28;20434;-60
2022/04/24 04:19:09;;;;;;;50.45;22.88;;;12.90;99.90;;;;;;5030966;28;20117;-60
2022/04/24 04:21:34;;;;;;;48.20;22.00;;;12.90;99.90;;;;;;5036482;28;20029;-60
2022/04/24 04:24:00;;;;;;;50.50;21.55;;;12.90;99.90;;;;;;5035930;28;20112;-60
2022/04/24 04:26:26;;;;;;;55.20;37.58;;;13.00;99.90;;;;;;5035851;28;20025;-60
2022/04/24 04:28:52;;;;;;;50.03;22.52;;;12.90;99.90;;;;;;5035349;28;20029;-60
2022/04/24 04:31:17;;;;;;;51.10;24.63;;;12.90;99.90;;;;;;5033107;28;20529;-60
2022/04/24 04:33:43;;;;;;;51.38;21.88;;;12.90;99.90;;;;;;5034882;28;20522;-60
2022/04/24 04:36:09;;;;;;;55.38;21.98;;;13.00;99.90;;;;;;5035055;28;20038;-60
2022/04/24 04:38:35;;;;;;;50.08;22.60;;;13.00;99.90;;;;;;5035002;28;20060;-60
2022/04/24 04:41:01;;;;;;;51.35;21.50;;;12.90;99.90;;;;;;5035318;28;20414;-60
2022/04/24 04:43:28;;;;;;;48.55;21.50;;;12.90;99.90;;;;;;5033849;28;20405;-60
2022/04/24 04:45:54;;;;;;;59.08;29.55;;;12.90;99.90;;;;;;5031885;28;20057;-60
2022/04/24 04:48:20;;;;;;;45.80;21.10;;;12.80;99.90;;;;;;5037125;28;20033;-60
2022/04/24 04:50:45;;;;;;;41.55;19.90;;;12.80;99.90;;;;;;5035509;28;20033;-59
2022/04/24 04:53:11;;;;;;;42.63;19.98;;;12.90;99.90;;;;;;5034911;28;20029;-60
2022/04/24 04:55:37;;;;;;;38.70;19.17;;;12.90;99.90;;;;;;5033593;28;20418;-60
2022/04/24 04:58:03;;;;;;;38.88;19.48;;;12.90;99.90;;;;;;5029506;28;20049;-59
2022/04/24 05:00:29;;;;;;;37.90;18.77;;;12.90;99.90;;;;;;5036841;28;20056;-60
2022/04/24 05:02:54;;;;;;;34.95;17.58;;;12.80;99.90;;;;;;5035027;28;20114;-60
2022/04/24 05:05:21;;;;;;;41.05;18.60;;;12.80;99.90;;;;;;5034768;28;20026;-60
2022/04/24 05:07:47;;;;;;;39.08;19.48;;;12.70;99.90;;;;;;5034828;28;20037;-60
2022/04/24 05:10:13;;;;;;;42.50;22.75;;;12.70;99.90;;;;;;5031638;28;20099;-60
2022/04/24 05:12:39;;;;;;;41.05;19.88;;;12.80;99.90;;;;;;5034446;28;20034;-60
2022/04/24 05:15:09;;;;;;;42.00;22.85;;;12.80;99.90;;;;;;5034173;28;20029;-59
2022/04/24 05:17:36;;;;;;;37.88;17.75;;;12.70;99.90;;;;;;5034647;28;20037;-60
2022/04/24 05:20:06;;;;;;;38.42;18.73;;;12.80;99.90;;;;;;5034627;28;20022;-60
2022/04/24 05:22:32;;;;;;;36.92;17.92;;;12.80;99.90;;;;;;5033892;28;20036;-60
2022/04/24 05:24:58;;;;;;;35.33;17.33;;;12.70;99.90;;;;;;5030608;28;20104;-60
2022/04/24 05:27:24;;;;;;;33.38;17.92;;;12.70;99.90;;;;;;5036362;28;20021;-60
2022/04/24 05:29:50;;;;;;;41.78;17.40;;;12.70;99.90;;;;;;5034428;28;20026;-60
2022/04/24 05:32:16;;;;;;;30.98;16.92;;;12.70;99.90;;;;;;5034397;28;20030;-60
2022/04/24 05:34:42;;;;;;;32.25;16.67;;;12.70;99.90;;;;;;5032444;28;20127;-60
2022/04/24 05:37:09;;;;;;;41.08;18.73;;;12.80;99.90;;;;;;5028754;28;20056;-60
2022/04/24 05:39:36;;;;;;;40.97;19.27;;;12.70;99.90;;;;;;5035169;28;20075;-60
2022/04/24 05:42:02;;;;;;;39.28;17.58;;;12.70;99.90;;;;;;5032270;28;20025;-60
2022/04/24 05:44:27;;;;;;;37.67;18.77;;;12.70;99.90;;;;;;5034339;28;20018;-60
2022/04/24 05:46:53;;;;;;;31.83;17.92;;;12.70;99.90;;;;;;5034261;28;20566;-60
2022/04/24 05:49:19;;;;;;;41.35;19.98;;;12.70;99.90;;;;;;5032235;28;20505;-60
2022/04/24 05:51:45;;;;;;;44.22;23.42;;;12.70;99.90;;;;;;5032656;28;20032;-60
2022/04/24 05:54:11;;;;;;;50.88;30.33;;;12.80;99.90;;;;;;5035569;28;20029;-60
2022/04/24 05:56:38;;;;;;;51.05;26.48;;;12.70;99.90;;;;;;5034247;28;20048;-60
2022/04/24 05:59:05;;;;;;;49.42;28.90;;;12.70;99.90;;;;;;5034179;28;20108;-60
2022/04/24 06:01:31;;;;;;;43.95;21.58;;;12.70;99.90;;;;;;5033516;28;20033;-60
2022/04/24 06:03:56;;;;;;;34.72;20.13;;;12.70;99.90;;;;;;5030365;28;20061;-60
2022/04/24 06:06:22;;;;;;;37.75;19.13;;;12.80;99.90;;;;;;5036272;28;20225;-61
2022/04/24 06:08:48;;;;;;;40.47;21.65;;;12.80;99.90;;;;;;5032714;28;20393;-60
2022/04/24 06:11:13;;;;;;;43.67;20.30;;;12.70;99.90;;;;;;5033756;28;20030;-60
2022/04/24 06:13:39;;;;;;;42.13;21.45;;;12.70;99.90;;;;;;5032736;28;20041;-60
2022/04/24 06:16:05;;;;;;;47.25;21.70;;;12.80;99.90;;;;;;5028283;28;20051;-60
2022/04/24 06:18:31;;;;;;;42.38;21.27;;;12.80;99.90;;;;;;5035778;28;20029;-60
2022/04/24 06:20:57;;;;;;;44.55;21.98;;;12.80;99.90;;;;;;5034372;28;20076;-60
2022/04/24 06:23:24;;;;;;;45.10;21.02;;;12.70;99.90;;;;;;5033914;28;20035;-60
2022/04/24 06:25:50;;;;;;;36.95;20.05;;;12.80;99.90;;;;;;5033546;28;20031;-60
2022/04/24 06:28:16;;;;;;;38.70;21.15;;;12.70;99.90;;;;;;5031012;28;20104;-60
2022/04/24 06:30:42;;;;;;;41.17;21.95;;;12.70;99.90;;;;;;5033194;28;20021;-60
2022/04/24 06:33:11;;;;;;;39.70;20.95;;;12.90;99.90;;;;;;5033525;28;20065;-59
2022/04/24 06:35:38;;;;;;;38.40;20.95;;;12.80;99.90;;;;;;5033687;28;20478;-60
2022/04/24 06:38:04;;;;;;;41.38;20.52;;;12.80;99.90;;;;;;5033175;28;20502;-59
2022/04/24 06:40:30;;;;;;;40.65;20.55;;;12.80;99.90;;;;;;5033129;28;20124;-59
2022/04/24 06:43:04;;;;;;;40.72;20.63;;;12.80;99.90;;;;;;5046472;28;20030;-59
2022/04/24 06:45:36;;;;;;;38.85;19.67;;;12.80;99.90;;;;;;5049144;28;20079;-59
2022/04/24 06:48:09;;;;;;;40.67;21.20;;;12.80;99.90;;;;;;5037882;28;20042;-59
2022/04/24 06:50:36;;;;;;;35.53;20.30;;;12.80;99.90;;;;;;5037291;28;20510;-58
2022/04/24 06:53:25;;;;;;;39.13;21.35;;;12.90;99.90;;;;;;5036015;28;20445;-59
2022/04/24 06:55:51;;;;;;;36.25;20.27;;;12.90;99.90;;;;;;5036148;28;20037;-59
2022/04/24 06:58:18;;;;;;;37.47;20.92;;;12.90;99.90;;;;;;5034536;28;20032;-59
2022/04/24 07:00:45;;;;;;;40.03;20.08;;;12.90;99.90;;;;;;5036122;28;20052;-59
2022/04/24 07:03:16;;;;;;;40.00;20.35;;;13.00;99.90;;;;;;5038927;28;20025;-59
2022/04/24 07:05:45;;;;;;;35.15;20.67;;;12.90;99.90;;;;;;5036787;28;20079;-59
2022/04/24 07:08:11;;;;;;;40.97;21.15;;;12.90;99.90;;;;;;5036771;28;20060;-58
2022/04/24 07:10:37;;;;;;;35.13;19.40;;;13.00;99.90;;;;;;5035743;28;20035;-57
2022/04/24 07:13:04;;;;;;;35.33;20.75;;;13.00;99.90;;;;;;5017212;28;20030;-59
2022/04/24 07:15:41;;;;;;;38.25;20.83;;;13.00;99.90;;;;;;5038969;28;20032;-59
2022/04/24 07:18:13;;;;;;;38.33;20.90;;;13.00;99.90;;;;;;5037609;28;20486;-60
2022/04/24 07:20:39;;;;;;;40.25;21.30;;;13.00;99.90;;;;;;5036697;28;20030;-58
2022/04/24 07:23:05;;;;;;;38.47;22.05;;;13.00;99.90;;;;;;5036344;28;20061;-59
2022/04/24 07:25:49;;;;;;;36.75;21.00;;;13.00;99.90;;;;;;5036330;28;20056;-59
2022/04/24 07:28:18;;;;;;;38.38;21.75;;;13.00;99.90;;;;;;5019541;28;20029;-59
2022/04/24 07:30:44;;;;;;;39.10;22.15;;;13.00;99.90;;;;;;5035695;28;20037;-59
2022/04/24 07:33:11;;;;;;;37.75;21.13;;;13.10;99.90;;;;;;5036248;28;20041;-59
2022/04/24 07:35:38;;;;;;;34.47;21.23;;;13.10;99.90;;;;;;5035001;28;20029;-59
2022/04/24 07:38:04;;;;;;;35.90;19.17;;;13.10;99.90;;;;;;5036004;28;20061;-59
2022/04/24 07:40:31;;;;;;;36.63;19.90;;;13.20;99.90;;;;;;5035403;28;20029;-59
2022/04/24 07:43:05;;;;;;;36.13;20.55;;;13.20;99.90;;;;;;5032836;28;20041;-60
2022/04/24 07:45:33;;;;;;;36.92;20.90;;;13.10;99.90;;;;;;5049427;28;20025;-57
2022/04/24 07:48:00;;;;;;;36.47;19.92;;;13.10;99.90;;;;;;5036018;28;20029;-58
2022/04/24 07:50:28;;;;;;;39.03;20.60;;;13.10;99.90;;;;;;5036299;28;20187;-59
2022/04/24 07:52:54;;;;;;;35.33;19.00;;;13.10;99.90;;;;;;5035710;28;20124;-58
2022/04/24 07:55:22;;;;;;;36.40;19.55;;;13.10;99.90;;;;;;5033954;28;20484;-58
2022/04/24 07:57:50;;;;;;;36.22;17.67;;;13.10;99.90;;;;;;5033093;28;20485;-60
2022/04/24 08:00:17;;;;;;;34.45;18.13;;;13.10;99.90;;;;;;5035844;28;20032;-58
2022/04/24 08:03:02;;;;;;;31.17;17.35;;;13.10;99.90;;;;;;5034658;28;20030;-58
2022/04/24 08:05:33;;;;;;;28.73;16.67;;;13.10;99.90;;;;;;5035553;28;20501;-58
2022/04/24 08:08:03;;;;;;;31.20;16.02;;;13.10;99.90;;;;;;5036022;28;20032;-58
2022/04/24 08:10:31;;;;;;;26.05;15.85;;;13.20;99.90;;;;;;5033314;28;20409;-58
2022/04/24 08:12:57;;;;;;;32.28;14.90;;;13.20;99.90;;;;;;5031525;28;20052;-59
2022/04/24 08:15:23;;;;;;;24.05;14.15;;;13.20;99.90;;;;;;5036639;28;20029;-58
2022/04/24 08:17:49;;;;;;;25.30;15.48;;;13.20;99.90;;;;;;5035809;28;20057;-58
2022/04/24 08:20:16;;;;;;;30.08;14.23;;;13.20;99.90;;;;;;5035271;28;20111;-58
2022/04/24 08:22:49;;;;;;;26.20;13.15;;;13.30;99.90;;;;;;5035148;28;20036;-58
2022/04/24 08:25:18;;;;;;;24.15;13.73;;;13.20;99.90;;;;;;5031965;28;20037;-57
2022/04/24 08:27:44;;;;;;;27.90;13.77;;;13.30;99.90;;;;;;5034385;28;20034;-57
2022/04/24 08:30:11;;;;;;;27.35;13.80;;;13.10;99.90;;;;;;5035175;28;20025;-59
2022/04/24 08:32:38;;;;;;;26.38;13.82;;;13.10;99.90;;;;;;5035551;28;20033;-59
2022/04/24 08:35:06;;;;;;;31.50;14.27;;;13.10;99.90;;;;;;5034536;28;20076;-58
2022/04/24 08:37:32;;;;;;;29.50;15.07;;;13.10;99.90;;;;;;5033476;28;20053;-59
2022/04/24 08:39:58;;;;;;;32.30;15.48;;;13.10;99.90;;;;;;5030718;28;20037;-59
2022/04/24 08:42:25;;;;;;;29.88;16.35;;;13.10;99.90;;;;;;5037497;28;20029;-58
2022/04/24 08:44:52;;;;;;;31.00;17.25;;;13.10;99.90;;;;;;5035303;28;20029;-59
2022/04/24 08:47:19;;;;;;;28.00;15.80;;;13.10;99.90;;;;;;5035143;28;20401;-59
2022/04/24 08:49:45;;;;;;;25.63;14.43;;;13.00;99.90;;;;;;5033041;28;20402;-59
2022/04/24 08:52:12;;;;;;;59.55;35.50;;;13.00;99.90;;;;;;5029684;28;20537;-58
2022/04/24 08:54:41;;;;;;;45.72;30.42;;;13.10;99.90;;;;;;5034817;28;20076;-57
2022/04/24 08:57:13;;;;;;;28.63;13.50;;;13.20;99.90;;;;;;5036046;28;20071;-60
2022/04/24 08:59:39;;;;;;;28.83;13.30;;;13.30;99.90;;;;;;5031960;28;20091;-59
2022/04/24 09:02:06;;;;;;;25.48;13.05;;;13.40;99.90;;;;;;5034395;28;20029;-58
2022/04/24 09:04:33;;;;;;;23.90;11.75;;;13.40;99.90;;;;;;5033359;28;20032;-57
2022/04/24 09:07:00;;;;;;;26.58;12.90;;;13.50;99.90;;;;;;5030608;28;20594;-57
2022/04/24 09:09:26;;;;;;;23.77;12.75;;;13.50;99.90;;;;;;5035148;28;20029;-59
2022/04/24 09:11:52;;;;;;;24.27;11.70;;;13.60;99.90;;;;;;5034364;28;20496;-59
2022/04/24 09:14:19;;;;;;;28.02;12.13;;;13.60;99.90;;;;;;5034602;28;20120;-59
2022/04/24 09:16:47;;;;;;;24.95;12.63;;;13.40;99.90;;;;;;5034620;28;20120;-59
2022/04/24 09:19:23;;;;;;;25.95;12.68;;;13.40;99.90;;;;;;5029555;28;20029;-59
2022/04/24 09:21:53;;;;;;;28.52;12.27;;;13.40;99.90;;;;;;5030866;28;20032;-59
2022/04/24 09:24:20;;;;;;;24.52;11.27;;;13.50;99.90;;;;;;5033727;28;20022;-59
2022/04/24 09:26:50;;;;;;;23.17;11.65;;;13.60;99.90;;;;;;5034348;28;20434;-58
2022/04/24 09:29:16;;;;;;;24.63;11.88;;;13.70;99.90;;;;;;5032920;28;20034;-59
2022/04/24 09:31:47;;;;;;;22.05;11.02;;;13.80;99.90;;;;;;5033325;28;20554;-59
2022/04/24 09:34:14;;;;;;;23.38;10.48;;;14.00;99.90;;;;;;5029276;28;20091;-58
2022/04/24 09:36:40;;;;;;;22.20;10.93;;;14.00;99.90;;;;;;5034425;28;20445;-59
2022/04/24 09:39:05;;;;;;;23.38;10.88;;;14.10;99.90;;;;;;5034668;28;20411;-59
2022/04/24 09:41:31;;;;;;;20.48;10.25;;;14.00;99.90;;;;;;5033847;28;20033;-59
2022/04/24 09:43:57;;;;;;;20.13;10.52;;;14.10;99.90;;;;;;5034437;28;20361;-59
2022/04/24 09:46:27;;;;;;;20.15;10.48;;;14.20;99.90;;;;;;5032370;28;20390;-59
2022/04/24 09:48:56;;;;;;;19.88;10.35;;;14.40;99.90;;;;;;5029566;28;20021;-59
2022/04/24 09:51:23;;;;;;;20.25;10.02;;;14.30;99.90;;;;;;5036084;28;20025;-59
2022/04/24 09:53:52;;;;;;;20.25;10.10;;;14.40;99.90;;;;;;5034113;28;20056;-59
2022/04/24 09:56:19;;;;;;;23.58;10.32;;;14.50;99.90;;;;;;5034036;28;20072;-59
2022/04/24 09:58:48;;;;;;;25.00;10.10;;;14.50;99.90;;;;;;5033963;28;20534;-60
2022/04/24 10:01:14;;;;;;;17.83;10.23;;;14.40;99.90;;;;;;5030672;28;20033;-59
2022/04/24 10:03:39;;;;;;;24.20;10.20;;;14.40;99.90;;;;;;5034298;28;20029;-59
2022/04/24 10:06:07;;;;;;;22.05;10.18;;;14.50;99.90;;;;;;5034926;28;20033;-58
2022/04/24 10:08:34;;;;;;;22.63;10.73;;;14.30;99.90;;;;;;5032485;28;20042;-59
2022/04/24 10:11:05;;;;;;;25.50;10.10;;;14.40;99.90;;;;;;5032443;28;20104;-59
2022/04/24 10:13:35;;;;;;;23.55;10.10;;;14.20;99.90;;;;;;5032971;28;20033;-59
2022/04/24 10:16:27;;;;;;;17.65;9.52;;;14.20;99.90;;;;;;5029450;28;20029;-58
2022/04/24 10:19:16;;;;;;;18.83;9.40;;;14.60;99.90;;;;;;5044223;28;20060;-59
2022/04/24 10:22:03;;;;;;;20.60;9.02;;;14.60;99.90;;;;;;5061899;28;20056;-59
2022/04/24 10:24:42;;;;;;;18.20;9.88;;;14.60;99.90;;;;;;5039108;28;20021;-58
2022/04/24 10:27:11;;;;;;;23.15;9.07;;;14.70;99.90;;;;;;5038905;28;20100;-58
2022/04/24 10:30:00;;;;;;;21.10;9.35;;;15.00;99.90;;;;;;5037898;28;20030;-59
2022/04/24 10:32:30;;;;;;;17.40;8.77;;;14.70;99.90;;;;;;5037363;28;20478;-58
2022/04/24 10:34:56;;;;;;;15.95;9.25;;;14.70;99.90;;;;;;5037505;28;20563;-58
2022/04/24 10:37:31;;;;;;;20.85;9.55;;;14.40;99.90;;;;;;5032586;28;20503;-57
2022/04/24 10:40:00;;;;;;;18.45;8.68;;;14.40;99.90;;;;;;5033225;28;20079;-58
2022/04/24 10:42:36;;;;;;;19.15;9.00;;;14.50;99.90;;;;;;5038767;28;20036;-59
2022/04/24 10:45:14;;;;;;;22.33;8.68;;;14.70;99.90;;;;;;5037469;28;20051;-58
2022/04/24 10:47:42;;;;;;;20.35;9.70;;;15.40;99.90;;;;;;5035774;28;20034;-58
2022/04/24 10:50:09;;;;;;;24.55;14.80;;;15.60;99.90;;;;;;5035820;28;20033;-59
2022/04/24 10:52:44;;;;;;;18.40;11.55;;;15.80;99.90;;;;;;5035148;28;20036;-58
2022/04/24 10:55:14;;;;;;;22.58;13.23;;;15.90;99.90;;;;;;5017663;28;20487;-58
2022/04/24 10:57:42;;;;;;;29.40;17.00;;;15.80;99.90;;;;;;5037132;28;20502;-59
2022/04/24 11:00:24;;;;;;;66.53;60.55;;;15.90;99.90;;;;;;5037958;28;20057;-58
2022/04/24 11:02:51;;;;;;;22.38;11.80;;;15.80;99.90;;;;;;5037307;28;20048;-59
2022/04/24 11:05:22;;;;;;;25.25;18.05;;;15.80;99.90;;;;;;5035433;28;20398;-59
2022/04/24 11:07:59;;;;;;;23.60;14.48;;;15.90;99.90;;;;;;5036892;28;20032;-59
2022/04/24 11:10:25;;;;;;;58.65;39.17;;;16.00;99.90;;;;;;5035312;28;20029;-59
2022/04/24 11:12:53;;;;;;;121.38;100.70;;;16.20;99.90;;;;;;5034092;28;20026;-59
2022/04/24 11:15:20;;;;;;;121.35;90.68;;;16.20;99.90;;;;;;5038000;28;20029;-59
2022/04/24 11:17:45;;;;;;;83.22;72.03;;;16.50;99.90;;;;;;5036695;28;20029;-59
2022/04/24 11:20:14;;;;;;;49.58;40.05;;;16.70;99.90;;;;;;5036679;28;20036;-58
2022/04/24 11:22:54;;;;;;;27.90;13.48;;;16.70;99.90;;;;;;5036607;28;20033;-59
2022/04/24 11:25:24;;;;;;;29.55;17.60;;;16.30;99.90;;;;;;5032887;28;20541;-58
2022/04/24 11:27:53;;;;;;;26.58;16.50;;;16.90;99.90;;;;;;5034840;28;20057;-58
2022/04/24 11:30:31;;;;;;;23.60;11.02;;;17.10;99.90;;;;;;5035790;28;20040;-58
2022/04/24 11:33:05;;;;;;;20.30;11.50;;;17.00;99.90;;;;;;5036145;28;20110;-60
2022/04/24 11:35:35;;;;;;;23.63;14.40;;;16.80;99.90;;;;;;5035573;28;20025;-59
2022/04/24 11:38:01;;;;;;;20.75;12.13;;;17.20;99.90;;;;;;5036151;28;20463;-59
2022/04/24 11:40:28;;;;;;;22.42;13.73;;;17.20;99.90;;;;;;5034860;28;20449;-59
2022/04/24 11:43:03;;;;;;;23.77;13.52;;;16.90;99.90;;;;;;5033514;28;20030;-59
2022/04/24 11:51:03;;;;;;;34.03;23.48;;;17.30;99.90;;;;;;5036515;28;20037;-59
2022/04/24 11:53:28;;;;;;;37.92;28.52;;;17.50;99.90;;;;;;5035730;28;20139;-57
2022/04/24 11:56:01;;;;;;;51.17;39.78;;;18.00;99.90;;;;;;5035844;28;20029;-59
2022/04/24 11:58:35;;;;;;;21.50;12.95;;;17.40;99.90;;;;;;5034083;28;20421;-58
2022/04/24 12:01:07;;;;;;;21.45;13.05;;;17.20;99.90;;;;;;5032220;28;20409;-59
2022/04/24 12:03:34;;;;;;;17.90;11.00;;;17.30;99.90;;;;;;5045428;28;20029;-59
2022/04/24 12:06:05;;;;;;;23.38;17.65;;;17.20;99.90;;;;;;5034561;28;20045;-59
2022/04/24 12:08:49;;;;;;;20.58;11.93;;;17.40;99.90;;;;;;5034492;28;20026;-59
2022/04/24 12:11:28;;;;;;;;;;;17.20;99.90;;;;;;5036084;28;20490;-58
2022/04/24 12:14:15;;;;;;;29.00;14.55;;;17.60;99.90;;;;;;5035771;28;19923;-59
2022/04/24 12:16:47;;;;;;;21.33;10.32;;;18.30;99.90;;;;;;5036281;28;20032;-59
2022/04/24 12:19:17;;;;;;;15.73;8.00;;;18.10;99.90;;;;;;5032185;28;20611;-59
2022/04/24 12:21:49;;;;;;;17.05;7.80;;;18.50;99.90;;;;;;5035077;28;20056;-60
2022/04/24 12:24:15;;;;;;;20.40;7.43;;;18.70;99.90;;;;;;5035154;28;20042;-60
2022/04/24 12:26:47;;;;;;;15.23;7.07;;;18.80;99.90;;;;;;5035347;28;20029;-58
2022/04/24 12:29:15;;;;;;;14.32;6.07;;;19.50;99.90;;;;;;5035412;28;20494;-59
2022/04/24 12:31:41;;;;;;;17.20;8.32;;;19.00;99.90;;;;;;5035489;28;20029;-59
2022/04/24 12:34:07;;;;;;;13.80;6.40;;;18.80;99.90;;;;;;5031595;28;20064;-59
2022/04/24 12:36:33;;;;;;;14.13;7.03;;;19.10;99.90;;;;;;5037208;28;20021;-58
2022/04/24 12:39:01;;;;;;;16.15;6.50;;;19.20;99.90;;;;;;5035079;28;20045;-59